TAF and METAR

Decoding for American and Canadian METARs and TAFs is not fully implemented.

Could not understand the following METAR

KPOY 061255Z AUTO 13007KT 10SM CLR 18/05 A2992 RMK AO2
No TAF available for Powell Municipal Airport